Terminal Aerodrome Forecast
Issued by NWS

Home | Current Version | Previous Version | Text Only | Print | Product List | Glossary Off
Versions: 1 2 3 4 5 6 7 8 9 10 11 12 13 14 15 16 17

000
FTUS43 KGRB 170500
TAFRHI
TAF
KRHI 170520Z 1706/1806 12012G19KT 3/4SM -SN BR BKN018 WS015/15040KT
      TEMPO 1707/1711 1/2SM SN FZFG BKN007
     FM171400 16009G15KT 1 1/2SM -SN BKN012
     FM171900 24010G18KT P6SM -SN BKN025
     FM172300 28009KT P6SM BKN035
     FM180300 28004KT 4SM BR SCT004=

USA.gov is the U.S. government's official web portal to all federal, state and local government web resources and services.